createdAt,value
2019-01-27T00:01:10.609Z,7.30
2019-01-27T00:03:15.361Z,7.20
2019-01-27T00:05:53.651Z,7.20
2019-01-27T00:08:47.055Z,7.20
2019-01-27T00:11:19.493Z,7.20
2019-01-27T00:14:09.838Z,7.20
2019-01-27T00:16:39.883Z,7.20
2019-01-27T00:19:10.235Z,7.20
2019-01-27T00:21:42.496Z,7.10
2019-01-27T00:24:23.332Z,7.20
2019-01-27T00:26:44.170Z,7.20
2019-01-27T00:29:23.322Z,7.30
2019-01-27T00:33:27.048Z,7.30
2019-01-27T00:35:10.560Z,7.20
2019-01-27T00:37:51.035Z,7.20
2019-01-27T00:40:21.025Z,7.20
2019-01-27T00:42:58.934Z,7.20
2019-01-27T00:45:28.786Z,7.20
2019-01-27T00:47:58.775Z,7.20
2019-01-27T00:50:40.425Z,7.20
2019-01-27T00:53:11.290Z,7.20
2019-01-27T00:55:43.723Z,7.10
2019-01-27T00:58:26.885Z,7.10
2019-01-27T01:01:24.351Z,7.20
2019-01-27T01:03:54.229Z,7.10
2019-01-27T01:06:42.123Z,7.10
2019-01-27T01:09:31.731Z,7.10
2019-01-27T01:12:05.692Z,7.10
2019-01-27T01:15:13.934Z,7.10
2019-01-27T01:17:45.814Z,7.10
2019-01-27T01:20:20.562Z,7.10
2019-01-27T01:23:04.109Z,7.10
2019-01-27T01:26:25.962Z,7.10
2019-01-27T01:29:16.720Z,7.10
2019-01-27T01:31:47.053Z,7.10
2019-01-27T01:34:17.077Z,7.00
2019-01-27T01:36:47.139Z,7.00
2019-01-27T01:39:17.044Z,7.00
2019-01-27T01:41:58.359Z,7.10
2019-01-27T01:44:30.765Z,7.10
2019-01-27T01:47:05.368Z,7.00
2019-01-27T01:50:32.987Z,7.00
2019-01-27T01:55:26.568Z,7.00
2019-01-27T01:58:01.039Z,6.90
2019-01-27T02:00:30.423Z,6.90
2019-01-27T02:03:00.461Z,6.80
2019-01-27T02:11:05.212Z,6.60
2019-01-27T02:14:06.840Z,6.60
2019-01-27T02:16:34.969Z,6.60
2019-01-27T02:19:13.984Z,6.60
2019-01-27T02:21:48.254Z,6.60
2019-01-27T02:24:35.597Z,6.60
2019-01-27T02:27:09.651Z,6.60
2019-01-27T02:29:40.836Z,6.70
2019-01-27T02:32:10.790Z,6.70
2019-01-27T02:35:03.671Z,6.70
2019-01-27T02:37:33.699Z,6.70
2019-01-27T02:40:37.026Z,6.70
2019-01-27T02:42:42.980Z,6.70
2019-01-27T02:48:25.028Z,6.70
2019-01-27T02:50:55.350Z,6.70
2019-01-27T02:53:39.918Z,6.70
2019-01-27T02:56:37.993Z,6.60
2019-01-27T02:58:57.710Z,6.60
2019-01-27T03:01:37.106Z,6.60
2019-01-27T03:04:27.629Z,6.60
2019-01-27T03:07:14.006Z,6.50
2019-01-27T03:09:51.730Z,6.50
2019-01-27T03:15:31.955Z,6.50
2019-01-27T03:18:01.887Z,6.40
2019-01-27T03:20:31.787Z,6.50
2019-01-27T03:23:02.003Z,6.40
2019-01-27T03:29:10.549Z,6.30
2019-01-27T03:31:40.502Z,6.20
2019-01-27T03:34:10.415Z,6.30
2019-01-27T03:36:47.277Z,6.30
2019-01-27T03:39:17.710Z,6.30
2019-01-27T03:41:47.706Z,6.30
2019-01-27T03:44:17.930Z,6.30
2019-01-27T03:46:48.066Z,6.30
2019-01-27T03:49:17.854Z,6.30
2019-01-27T03:51:47.780Z,6.30
2019-01-27T03:54:17.994Z,6.30
2019-01-27T03:56:50.674Z,6.30
2019-01-27T03:59:20.814Z,6.20
2019-01-27T04:02:02.815Z,6.20
2019-01-27T04:04:35.127Z,6.20
2019-01-27T04:07:08.553Z,6.20
2019-01-27T04:09:38.889Z,6.20
2019-01-27T04:12:09.044Z,6.10
2019-01-27T04:14:59.838Z,6.10
2019-01-27T04:20:45.544Z,6.10
2019-01-27T04:23:19.295Z,6.00
2019-01-27T04:25:49.919Z,6.00
2019-01-27T04:28:19.857Z,6.00
2019-01-27T04:30:49.710Z,6.00
2019-01-27T04:33:38.557Z,6.00
2019-01-27T04:36:50.555Z,6.00
2019-01-27T04:39:34.991Z,6.00
2019-01-27T04:42:04.914Z,6.00
2019-01-27T04:50:30.997Z,5.90
2019-01-27T04:53:00.934Z,5.90
2019-01-27T04:55:30.917Z,6.00
2019-01-27T04:58:00.931Z,6.00
2019-01-27T05:00:33.729Z,5.90
2019-01-27T05:03:58.467Z,5.90
2019-01-27T05:06:41.276Z,5.90
2019-01-27T05:10:01.540Z,5.90
2019-01-27T05:13:05.563Z,5.90
2019-01-27T05:14:42.430Z,5.90
2019-01-27T05:17:20.379Z,6.00
2019-01-27T05:19:55.509Z,6.00
2019-01-27T05:22:26.219Z,5.90
2019-01-27T05:25:18.596Z,6.00
2019-01-27T05:27:57.807Z,6.00
2019-01-27T05:30:54.154Z,6.00
2019-01-27T05:33:43.442Z,5.90
2019-01-27T05:36:15.270Z,5.90
2019-01-27T05:38:45.372Z,6.00
2019-01-27T05:41:16.572Z,6.00
2019-01-27T05:44:04.044Z,6.10
2019-01-27T05:47:29.530Z,6.00
2019-01-27T05:49:25.428Z,6.00
2019-01-27T05:52:00.753Z,6.10
2019-01-27T05:57:13.419Z,6.10
2019-01-27T05:59:56.779Z,6.20
2019-01-27T06:02:29.455Z,6.20
2019-01-27T06:04:59.592Z,6.10
2019-01-27T06:10:27.249Z,6.10
2019-01-27T06:13:00.709Z,6.10
2019-01-27T06:15:52.597Z,5.90
2019-01-27T06:18:20.662Z,5.80
2019-01-27T06:20:52.321Z,5.60
2019-01-27T06:23:22.553Z,5.30
2019-01-27T06:25:52.796Z,5.10
2019-01-27T06:28:24.226Z,4.90
2019-01-27T06:31:09.907Z,4.80
2019-01-27T06:33:44.726Z,4.70
2019-01-27T06:36:14.778Z,4.60
2019-01-27T06:38:44.832Z,4.50
2019-01-27T06:41:16.461Z,4.50
2019-01-27T06:43:59.287Z,4.40
2019-01-27T06:46:29.407Z,4.30
2019-01-27T06:48:59.293Z,4.20
2019-01-27T06:51:48.252Z,4.20
2019-01-27T06:54:24.754Z,4.10
2019-01-27T06:56:51.463Z,4.00
2019-01-27T06:59:53.459Z,4.00
2019-01-27T07:02:32.488Z,4.00
2019-01-27T07:05:08.209Z,3.90
2019-01-27T07:08:02.922Z,3.80
2019-01-27T07:11:08.987Z,3.80
2019-01-27T07:14:05.864Z,3.70
2019-01-27T07:17:02.689Z,3.60
2019-01-27T07:19:54.312Z,3.60
2019-01-27T07:22:46.538Z,3.50
2019-01-27T07:25:58.468Z,3.50
2019-01-27T07:28:56.612Z,3.40
2019-01-27T07:32:03.257Z,3.40
2019-01-27T07:35:09.044Z,3.50
2019-01-27T07:37:59.940Z,3.50
2019-01-27T07:44:43.759Z,3.60
2019-01-27T07:51:04.458Z,3.50
2019-01-27T07:54:00.877Z,3.40
2019-01-27T08:00:18.215Z,3.20
2019-01-27T08:03:12.175Z,3.20
2019-01-27T08:06:26.254Z,3.30
2019-01-27T08:12:53.413Z,3.30
2019-01-27T08:15:53.070Z,3.30
2019-01-27T08:18:53.669Z,3.40
2019-01-27T08:22:04.511Z,3.40
2019-01-27T08:25:15.137Z,3.40
2019-01-27T08:28:22.065Z,3.40
2019-01-27T08:31:22.275Z,3.50
2019-01-27T08:34:24.072Z,3.50
2019-01-27T08:37:18.769Z,3.50
2019-01-27T08:43:14.251Z,3.40
2019-01-27T08:46:00.825Z,3.50
2019-01-27T08:48:49.098Z,3.50
2019-01-27T08:51:29.577Z,3.50
2019-01-27T08:54:09.044Z,3.50
2019-01-27T08:56:53.028Z,3.50
2019-01-27T08:59:28.348Z,3.50
2019-01-27T09:02:38.029Z,3.50
2019-01-27T09:05:49.388Z,3.50
2019-01-27T09:08:42.081Z,3.60
2019-01-27T09:11:24.879Z,3.70
2019-01-27T09:14:38.435Z,3.90
2019-01-27T09:17:33.349Z,4.10
2019-01-27T09:24:08.807Z,4.30
2019-01-27T09:27:07.469Z,4.20
2019-01-27T09:32:59.600Z,4.10
2019-01-27T09:38:58.259Z,3.90
2019-01-27T09:41:47.692Z,3.90
2019-01-27T09:47:41.513Z,4.10
2019-01-27T09:50:27.241Z,4.30
2019-01-27T09:56:32.359Z,4.10
2019-01-27T09:59:26.589Z,4.20
2019-01-27T10:02:34.637Z,4.40
2019-01-27T10:05:04.370Z,4.50
2019-01-27T10:07:58.282Z,4.80
2019-01-27T10:11:09.778Z,4.60
2019-01-27T10:14:00.282Z,4.70
2019-01-27T10:16:53.245Z,5.60
2019-01-27T10:19:38.063Z,5.70
2019-01-27T10:22:39.865Z,5.70
2019-01-27T10:25:50.882Z,5.50
2019-01-27T10:28:37.394Z,5.40
2019-01-27T10:31:17.039Z,5.20
2019-01-27T10:34:07.234Z,5.10
2019-01-27T10:37:16.648Z,5.10
2019-01-27T10:40:22.492Z,5.00
2019-01-27T10:43:23.774Z,5.10
2019-01-27T10:46:33.432Z,5.10
2019-01-27T10:49:44.297Z,5.10
2019-01-27T10:52:25.076Z,5.20
2019-01-27T10:55:13.876Z,5.40
2019-01-27T10:58:21.930Z,5.40
2019-01-27T11:00:55.577Z,5.30
2019-01-27T11:04:01.202Z,5.40
2019-01-27T11:07:18.364Z,5.40
2019-01-27T11:10:07.099Z,5.40
2019-01-27T11:13:10.549Z,5.40
2019-01-27T11:16:18.273Z,5.30
2019-01-27T11:19:09.667Z,5.20
2019-01-27T11:22:20.287Z,5.30
2019-01-27T11:25:13.112Z,5.30
2019-01-27T11:28:16.362Z,5.30
2019-01-27T11:31:05.065Z,5.40
2019-01-27T11:34:10.158Z,5.60
2019-01-27T11:37:04.431Z,5.80
2019-01-27T11:40:04.513Z,5.80
2019-01-27T11:43:18.249Z,5.80
2019-01-27T11:46:10.627Z,5.80
2019-01-27T11:48:49.622Z,5.90
2019-01-27T11:51:35.226Z,5.80
2019-01-27T11:54:09.038Z,5.80
2019-01-27T11:56:41.601Z,5.90
2019-01-27T11:59:19.334Z,6.00
2019-01-27T12:02:05.615Z,6.10
2019-01-27T12:04:40.854Z,6.10
2019-01-27T12:07:11.055Z,6.10
2019-01-27T12:09:46.748Z,6.00
2019-01-27T12:12:29.227Z,6.10
2019-01-27T12:15:18.080Z,6.10
2019-01-27T12:18:04.703Z,6.20
2019-01-27T12:20:43.880Z,6.20
2019-01-27T12:23:31.400Z,6.10
2019-01-27T12:26:09.988Z,6.00
2019-01-27T12:28:59.106Z,5.80
2019-01-27T12:31:46.827Z,5.80
2019-01-27T12:34:55.099Z,5.70
2019-01-27T12:37:38.720Z,5.70
2019-01-27T12:40:45.925Z,5.70
2019-01-27T12:42:59.075Z,5.50
2019-01-27T12:45:29.404Z,5.40
2019-01-27T12:47:59.358Z,5.30
2019-01-27T12:50:33.651Z,5.40
2019-01-27T12:56:10.354Z,5.30
2019-01-27T12:58:40.371Z,5.60
2019-01-27T13:02:06.817Z,5.70
2019-01-27T13:03:55.864Z,5.60
2019-01-27T13:09:24.009Z,5.40
2019-01-27T13:11:59.168Z,5.40
2019-01-27T13:14:33.253Z,5.50
2019-01-27T13:17:16.289Z,5.50
2019-01-27T13:19:46.284Z,5.40
2019-01-27T13:22:38.655Z,5.30
2019-01-27T13:25:21.707Z,5.50
2019-01-27T13:28:24.644Z,5.70
2019-01-27T13:31:20.683Z,5.70
2019-01-27T13:33:05.934Z,5.70
2019-01-27T13:35:55.448Z,5.70
2019-01-27T13:38:18.221Z,5.70
2019-01-27T13:41:05.800Z,5.80
2019-01-27T13:46:46.766Z,5.90
2019-01-27T13:49:58.923Z,5.70
2019-01-27T13:52:26.490Z,5.60
2019-01-27T13:54:33.801Z,5.70
2019-01-27T13:57:09.494Z,5.40
2019-01-27T13:59:39.442Z,5.20
2019-01-27T14:02:16.761Z,5.30
2019-01-27T14:04:51.100Z,5.20
2019-01-27T14:07:44.473Z,5.40
2019-01-27T14:10:36.167Z,5.50
2019-01-27T14:13:23.852Z,5.40
2019-01-27T14:16:02.583Z,5.40
2019-01-27T14:18:44.218Z,5.60
2019-01-27T14:21:21.627Z,5.60
2019-01-27T14:24:01.476Z,5.60
2019-01-27T14:26:31.534Z,5.50
2019-01-27T14:29:10.129Z,5.40
2019-01-27T14:31:52.241Z,5.50
2019-01-27T14:37:34.343Z,5.50
2019-01-27T14:40:13.674Z,5.50
2019-01-27T14:42:45.630Z,5.40
2019-01-27T14:45:32.685Z,5.50
2019-01-27T14:48:14.827Z,5.50
2019-01-27T14:50:53.241Z,5.50
2019-01-27T14:53:26.804Z,5.60
2019-01-27T14:55:58.771Z,5.60
2019-01-27T14:58:46.683Z,5.70
2019-01-27T15:01:18.932Z,5.70
2019-01-27T15:04:06.188Z,5.70
2019-01-27T15:06:48.012Z,5.80
2019-01-27T15:09:32.408Z,5.90
2019-01-27T15:12:06.764Z,5.90
2019-01-27T15:14:41.826Z,6.00
2019-01-27T15:17:16.012Z,6.00
2019-01-27T15:19:53.612Z,6.00
2019-01-27T15:22:29.903Z,5.90
2019-01-27T15:25:07.148Z,5.90
2019-01-27T15:27:44.292Z,5.90
2019-01-27T15:30:21.915Z,5.80
2019-01-27T15:33:03.356Z,5.80
2019-01-27T15:35:44.009Z,5.80
2019-01-27T15:38:17.943Z,5.70
2019-01-27T15:40:51.650Z,5.60
2019-01-27T15:43:34.438Z,5.60
2019-01-27T15:46:10.574Z,5.60
2019-01-27T15:48:43.111Z,5.60
2019-01-27T15:51:15.726Z,5.70
2019-01-27T15:53:56.647Z,5.60
2019-01-27T15:56:33.615Z,5.80
2019-01-27T15:59:06.085Z,5.60
2019-01-27T16:01:45.486Z,5.70
2019-01-27T16:04:20.223Z,5.60
2019-01-27T16:07:02.175Z,5.60
2019-01-27T16:09:32.265Z,5.70
2019-01-27T16:12:14.250Z,5.80
2019-01-27T16:14:48.348Z,5.60
2019-01-27T16:17:29.732Z,5.60
2019-01-27T16:20:06.697Z,5.50
2019-01-27T16:23:02.305Z,5.50
2019-01-27T16:25:35.048Z,5.40
2019-01-27T16:28:12.236Z,5.40
2019-01-27T16:31:40.284Z,5.40
2019-01-27T16:34:50.355Z,5.40
2019-01-27T16:37:34.048Z,5.40
2019-01-27T16:40:08.382Z,5.40
2019-01-27T16:42:48.531Z,5.30
2019-01-27T16:45:34.430Z,5.30
2019-01-27T16:51:48.787Z,5.40
2019-01-27T16:54:17.346Z,5.30
2019-01-27T16:57:16.245Z,5.50
2019-01-27T17:00:05.432Z,5.20
2019-01-27T17:02:58.221Z,5.30
2019-01-27T17:05:28.949Z,5.30
2019-01-27T17:08:12.192Z,5.20
2019-01-27T17:10:45.787Z,5.30
2019-01-27T17:13:24.333Z,5.20
2019-01-27T17:16:06.326Z,5.10
2019-01-27T17:18:37.569Z,5.20
2019-01-27T17:21:09.322Z,5.20
2019-01-27T17:23:43.747Z,5.30
2019-01-27T17:26:36.591Z,5.20
2019-01-27T17:29:15.913Z,5.20
2019-01-27T17:32:00.840Z,5.20
2019-01-27T17:34:32.123Z,5.30
2019-01-27T17:37:17.801Z,5.20
2019-01-27T17:39:50.385Z,5.20
2019-01-27T17:42:38.226Z,5.40
2019-01-27T17:45:10.421Z,5.10
2019-01-27T17:47:41.565Z,5.00
2019-01-27T17:50:21.815Z,5.10
2019-01-27T17:52:57.879Z,5.00
2019-01-27T17:55:44.778Z,4.90
2019-01-27T17:58:43.256Z,4.90
2019-01-27T18:05:21.608Z,4.60
2019-01-27T18:08:05.136Z,4.60
2019-01-27T18:14:23.035Z,4.50
2019-01-27T18:17:04.786Z,4.40
2019-01-27T18:19:41.528Z,4.40
2019-01-27T18:22:16.105Z,4.30
2019-01-27T18:24:49.468Z,4.20
2019-01-27T18:27:21.654Z,4.20
2019-01-27T18:30:25.912Z,4.30
2019-01-27T18:32:35.076Z,4.10
2019-01-27T18:35:33.338Z,4.20
2019-01-27T18:38:17.255Z,4.20
2019-01-27T18:40:45.336Z,4.30
2019-01-27T18:43:16.863Z,4.40
2019-01-27T18:45:49.019Z,4.20
2019-01-27T18:48:24.027Z,4.00
2019-01-27T18:51:15.537Z,4.20
2019-01-27T18:58:52.179Z,3.90
2019-01-27T19:00:59.795Z,3.80
2019-01-27T19:03:35.719Z,4.00
2019-01-27T19:09:46.156Z,3.90
2019-01-27T19:12:43.892Z,3.90
2019-01-27T19:16:00.299Z,4.00
2019-01-27T19:19:00.728Z,3.90
2019-01-27T19:22:17.090Z,4.10
2019-01-27T19:25:21.761Z,4.10
2019-01-27T19:28:39.400Z,4.00
2019-01-27T19:31:29.760Z,4.00
2019-01-27T19:34:19.229Z,4.00
2019-01-27T19:37:10.468Z,4.00
2019-01-27T19:40:45.849Z,4.00
2019-01-27T19:46:08.815Z,4.00
2019-01-27T19:49:17.817Z,4.00
2019-01-27T19:52:16.426Z,3.90
2019-01-27T19:55:01.740Z,3.90
2019-01-27T19:58:21.374Z,4.00
2019-01-27T20:01:13.083Z,3.80
2019-01-27T20:04:25.541Z,3.80
2019-01-27T20:07:22.858Z,3.70
2019-01-27T20:10:14.119Z,3.40
2019-01-27T20:13:08.612Z,3.40
2019-01-27T20:16:12.351Z,3.60
2019-01-27T20:18:53.699Z,3.50
2019-01-27T20:21:53.208Z,3.40
2019-01-27T20:25:07.229Z,3.30
2019-01-27T20:28:35.503Z,3.30
2019-01-27T20:31:11.890Z,3.40
2019-01-27T20:34:11.457Z,3.20
2019-01-27T20:37:02.013Z,3.10
2019-01-27T20:39:46.716Z,3.10
2019-01-27T20:42:39.951Z,3.20
2019-01-27T20:45:35.802Z,3.00
2019-01-27T20:48:37.104Z,2.90
2019-01-27T20:51:36.453Z,2.90
2019-01-27T20:54:48.251Z,3.10
2019-01-27T20:57:46.053Z,2.90
2019-01-27T21:00:48.992Z,3.10
2019-01-27T21:03:53.489Z,3.10
2019-01-27T21:07:17.678Z,2.90
2019-01-27T21:09:50.025Z,3.00
2019-01-27T21:12:40.763Z,2.70
2019-01-27T21:15:59.561Z,2.80
2019-01-27T21:18:42.610Z,2.70
2019-01-27T21:21:20.274Z,2.70
2019-01-27T21:24:09.427Z,2.70
2019-01-27T21:26:57.154Z,2.60
2019-01-27T21:29:46.037Z,2.40
2019-01-27T21:32:34.009Z,2.30
2019-01-27T21:35:18.736Z,2.30
2019-01-27T21:38:04.782Z,2.40
2019-01-27T21:40:34.593Z,2.30
2019-01-27T21:43:27.234Z,2.40
2019-01-27T21:45:37.496Z,2.30
2019-01-27T21:48:13.266Z,2.30
2019-01-27T21:50:49.162Z,2.30
2019-01-27T21:53:23.002Z,2.30
2019-01-27T21:57:06.303Z,2.10
2019-01-27T21:58:31.032Z,2.20
2019-01-27T22:01:06.633Z,2.30
2019-01-27T22:03:37.364Z,2.40
2019-01-27T22:07:01.418Z,2.40
2019-01-27T22:09:45.030Z,2.30
2019-01-27T22:12:17.538Z,2.20
2019-01-27T22:14:53.835Z,2.30
2019-01-27T22:17:44.339Z,2.30
2019-01-27T22:20:18.901Z,2.10
2019-01-27T22:23:00.843Z,2.10
2019-01-27T22:25:37.836Z,2.00
2019-01-27T22:28:19.326Z,2.10
2019-01-27T22:30:49.152Z,2.10
2019-01-27T22:33:30.659Z,2.10
2019-01-27T22:36:00.626Z,2.00
2019-01-27T22:38:30.739Z,2.10
2019-01-27T22:41:00.730Z,2.30
2019-01-27T22:43:39.557Z,2.20
2019-01-27T22:46:10.072Z,2.10
2019-01-27T22:48:40.100Z,2.30
2019-01-27T22:52:18.613Z,2.10
2019-01-27T22:53:49.935Z,2.10
2019-01-27T22:56:21.511Z,2.00
2019-01-27T22:58:55.719Z,2.10
2019-01-27T23:01:34.497Z,2.00
2019-01-27T23:04:20.936Z,2.00
2019-01-27T23:06:53.190Z,2.00
2019-01-27T23:10:33.225Z,1.90
2019-01-27T23:11:59.463Z,2.10
2019-01-27T23:17:45.977Z,2.00
2019-01-27T23:20:00.923Z,1.90
2019-01-27T23:22:30.799Z,2.00
2019-01-27T23:25:00.882Z,1.90
2019-01-27T23:27:31.147Z,1.90
2019-01-27T23:30:13.385Z,1.90
2019-01-27T23:33:29.882Z,1.80
2019-01-27T23:35:25.223Z,1.90
2019-01-27T23:37:57.732Z,1.90
2019-01-27T23:40:35.560Z,2.00
2019-01-27T23:43:52.214Z,1.80
2019-01-27T23:45:57.665Z,1.90
2019-01-27T23:48:48.017Z,1.90
2019-01-27T23:51:17.821Z,2.10
2019-01-27T23:53:47.702Z,2.00
2019-01-27T23:56:20.087Z,2.00
2019-01-27T23:58:56.568Z,1.90
